Time;durP1;ratioP1;P1;durP2;ratioP2;P2;SDS_P1;SDS_P2;PMS_P1;PMS_P2;Temp;Humidity;BMP_temperature;BMP_pressure;BME280_temperature;BME280_humidity;BME280_pressure;Samples;Min_cycle;Max_cycle;Signal;HPM_P1;HPM_P2
2023/03/30 00:00:22;;;;;;;1.42;1.33;;;;;;;5.31;52.54;62544.97;5036691;28;20235;-77
2023/03/30 00:02:52;;;;;;;1.45;1.35;;;;;;;5.28;52.67;62536.31;5031437;28;20410;-76
2023/03/30 00:05:19;;;;;;;4.32;1.63;;;;;;;5.29;52.67;62537.34;5039067;28;20299;-76
2023/03/30 00:07:47;;;;;;;4.35;1.58;;;;;;;5.26;53.27;62539.81;5033695;28;20257;-78
2023/03/30 00:10:17;;;;;;;2.42;1.80;;;;;;;5.20;53.16;62530.59;5042749;28;20248;-77
2023/03/30 00:12:46;;;;;;;1.25;1.23;;;;;;;5.16;53.10;62527.00;5047171;28;20531;-77
2023/03/30 00:15:14;;;;;;;2.47;1.20;;;;;;;5.12;53.18;62520.34;5048702;28;20605;-77
2023/03/30 00:17:42;;;;;;;1.75;1.17;;;;;;;5.10;53.31;62515.78;5045488;28;20297;-77
2023/03/30 00:20:12;;;;;;;3.00;2.05;;;;;;;5.12;53.10;62520.34;5046760;28;20226;-77
2023/03/30 00:22:39;;;;;;;1.55;1.52;;;;;;;5.08;52.98;62518.25;5045142;28;20218;-77
2023/03/30 00:25:09;;;;;;;1.85;1.50;;;;;;;5.10;52.67;62520.81;5034239;28;20216;-75
2023/03/30 00:27:36;;;;;;;3.72;1.23;;;;;;;5.11;52.56;62519.31;5034891;28;20218;-76
2023/03/30 00:30:04;;;;;;;1.25;1.25;;;;;;;5.03;52.94;62515.63;5039434;28;20202;-76
2023/03/30 00:32:33;;;;;;;2.17;1.55;;;;;;;5.10;53.00;62523.34;5037008;28;20226;-77
2023/03/30 00:35:00;;;;;;;1.90;1.80;;;;;;;5.00;53.47;62508.00;5033569;28;20194;-76
2023/03/30 00:37:29;;;;;;;1.50;1.40;;;;;;;4.98;53.58;62507.94;5044487;28;20478;-76
2023/03/30 00:39:56;;;;;;;1.88;1.60;;;;;;;5.00;53.63;62504.97;5037802;28;20282;-76
2023/03/30 00:42:24;;;;;;;1.90;1.75;;;;;;;4.99;53.73;62508.97;5027922;28;20214;-78
2023/03/30 00:45:16;;;;;;;2.20;1.83;;;;;;;4.93;54.57;62502.78;5041849;28;20202;-78
2023/03/30 00:47:49;;;;;;;2.60;2.00;;;;;;;4.93;54.95;62503.31;5038917;28;20468;-77
2023/03/30 00:50:20;;;;;;;1.88;1.77;;;;;;;4.94;55.76;62501.28;5031356;28;20500;-77
2023/03/30 00:52:52;;;;;;;1.70;1.60;;;;;;;4.83;56.41;62489.97;5044577;28;20225;-77
2023/03/30 00:55:22;;;;;;;1.52;1.27;;;;;;;4.79;57.01;62485.84;5028915;28;20203;-76
2023/03/30 00:57:51;;;;;;;4.10;1.73;;;;;;;4.79;57.30;62488.91;5029531;28;20210;-78
2023/03/30 01:00:19;;;;;;;1.52;1.42;;;;;;;4.80;57.58;62486.91;5042094;28;20297;-76
2023/03/30 01:02:54;;;;;;;2.38;1.52;;;;;;;4.83;58.10;62487.47;5026380;28;20238;-77
2023/03/30 01:05:22;;;;;;;3.80;2.03;;;;;;;4.79;57.81;62490.91;5044755;28;20374;-76
2023/03/30 01:07:52;;;;;;;1.30;1.20;;;;;;;4.77;58.21;62486.84;5031445;28;20226;-77
2023/03/30 01:10:19;;;;;;;1.33;1.33;;;;;;;4.72;58.76;62482.22;5033476;28;20244;-77
2023/03/30 01:12:48;;;;;;;3.40;2.25;;;;;;;4.71;58.93;62481.16;5042058;28;20237;-76
2023/03/30 01:15:16;;;;;;;2.15;1.65;;;;;;;4.68;58.23;62475.03;5040276;28;20289;-77
2023/03/30 01:18:03;;;;;;;2.22;1.70;;;;;;;4.77;58.32;62489.34;5044285;28;20245;-77
2023/03/30 01:21:02;;;;;;;1.70;1.60;;;;;;;4.80;57.54;62489.91;5038331;28;20226;-77
2023/03/30 01:24:14;;;;;;;2.85;2.17;;;;;;;4.80;58.04;62489.91;5040024;28;20221;-77
2023/03/30 01:26:52;;;;;;;4.05;2.17;;;;;;;4.79;58.78;62488.91;5046676;28;20284;-79
2023/03/30 01:29:44;;;;;;;1.45;1.35;;;;;;;4.77;58.17;62486.84;5044746;28;20225;-75
2023/03/30 01:33:01;;;;;;;1.67;1.50;;;;;;;4.80;56.46;62489.91;5036361;28;20222;-77
2023/03/30 01:36:18;;;;;;;2.20;1.30;;;;;;;4.90;55.41;62502.75;4990791;28;20202;-75
2023/03/30 01:39:10;;;;;;;1.10;1.10;;;;;;;4.93;54.19;62502.78;5041856;28;20289;-76
2023/03/30 01:41:45;;;;;;;1.90;1.80;;;;;;;4.93;54.30;62503.31;5034990;28;20534;-77
2023/03/30 01:44:19;;;;;;;3.10;1.67;;;;;;;4.93;55.73;62500.28;5034748;28;20209;-77
2023/03/30 01:46:51;;;;;;;2.65;2.00;;;;;;;4.94;56.08;62504.34;5043671;28;20238;-77
2023/03/30 01:49:26;;;;;;;1.67;1.60;;;;;;;4.92;56.39;62499.75;5042589;28;20206;-77
2023/03/30 01:52:01;;;;;;;2.53;1.85;;;;;;;4.86;55.90;62496.09;5032798;28;20225;-77
2023/03/30 01:54:33;;;;;;;2.17;1.98;;;;;;;4.83;56.14;62489.97;5025739;28;20406;-77
2023/03/30 01:57:05;;;;;;;2.28;1.20;;;;;;;4.74;56.37;62484.25;5040141;28;20438;-78
2023/03/30 01:59:36;;;;;;;2.75;1.60;;;;;;;4.76;56.70;62480.25;5030437;28;20209;-77
2023/03/30 02:02:06;;;;;;;1.80;1.70;;;;;;;4.71;56.92;62483.69;5037693;28;20256;-77
2023/03/30 02:04:38;;;;;;;1.80;1.70;;;;;;;4.66;57.41;62473.00;5043553;28;20204;-77
2023/03/30 02:07:10;;;;;;;2.50;1.90;;;;;;;4.67;57.89;62471.50;5048101;28;20224;-76
2023/03/30 02:09:41;;;;;;;1.85;1.75;;;;;;;4.57;58.58;62469.28;5041666;28;20209;-76
2023/03/30 02:12:10;;;;;;;2.10;1.90;;;;;;;4.52;58.73;62466.16;5025617;28;20269;-75
2023/03/30 02:14:40;;;;;;;2.47;1.88;;;;;;;4.49;58.99;62465.56;5034210;28;20423;-76
2023/03/30 02:17:13;;;;;;;4.43;1.50;;;;;;;4.54;58.57;62463.16;5025769;28;20575;-77
2023/03/30 02:19:41;;;;;;;1.58;1.55;;;;;;;4.54;58.26;62468.72;5026736;28;20234;-76
2023/03/30 02:22:08;;;;;;;1.75;1.63;;;;;;;4.57;58.54;62466.75;5041697;28;20222;-76
2023/03/30 02:24:36;;;;;;;2.00;1.90;;;;;;;4.52;58.87;62466.16;5040379;28;20247;-76
2023/03/30 02:27:05;;;;;;;1.88;1.77;;;;;;;4.51;59.56;62462.59;5030288;28;20479;-76
2023/03/30 02:29:35;;;;;;;1.70;1.60;;;;;;;4.50;59.67;62456.53;5033353;28;20324;-76
2023/03/30 02:32:02;;;;;;;2.20;1.70;;;;;;;4.44;60.42;62455.91;5039799;28;20228;-77
2023/03/30 02:34:51;;;;;;;3.20;1.77;;;;;;;4.46;60.80;62454.94;5041340;28;20415;-76
2023/03/30 02:37:38;;;;;;;1.50;1.40;;;;;;;4.37;61.09;62445.66;5031301;28;20238;-76
2023/03/30 02:40:21;;;;;;;1.88;1.77;;;;;;;4.33;61.26;62441.56;5027474;28;20269;-76
2023/03/30 02:43:23;;;;;;;2.38;1.48;;;;;;;4.35;61.32;62449.16;5027383;28;20225;-77
2023/03/30 02:45:53;;;;;;;1.98;1.85;;;;;;;4.38;61.32;62446.69;5022204;28;20529;-77
2023/03/30 02:48:39;;;;;;;2.67;2.03;;;;;;;4.36;61.80;62442.66;5027831;28;20229;-77
2023/03/30 02:51:20;;;;;;;3.80;1.75;;;;;;;4.38;61.65;62444.19;5043102;28;20525;-77
2023/03/30 02:53:55;;;;;;;1.60;1.52;;;;;;;4.45;62.28;62451.38;5024672;28;20273;-77
2023/03/30 02:56:27;;;;;;;2.17;2.00;;;;;;;4.43;65.24;62452.38;5025637;28;20205;-77
2023/03/30 02:59:03;;;;;;;5.50;1.80;;;;;;;4.40;66.10;62448.75;5031872;28;20205;-76
2023/03/30 03:01:36;;;;;;;4.28;2.10;;;;;;;4.32;68.55;62443.56;5043154;28;20476;-77
2023/03/30 03:04:05;;;;;;;1.73;1.48;;;;;;;4.38;67.33;62444.19;5046029;28;20230;-77
2023/03/30 03:06:32;;;;;;;2.45;1.90;;;;;;;4.36;68.04;62447.16;5029785;28;20460;-76
2023/03/30 03:08:59;;;;;;;2.13;2.03;;;;;;;4.37;68.75;62448.19;5040081;28;20202;-77
2023/03/30 03:11:26;;;;;;;2.20;2.10;;;;;;;4.35;69.78;62443.59;5047065;28;20221;-76
2023/03/30 03:13:54;;;;;;;3.05;2.22;;;;;;;4.29;72.02;62437.97;5030142;28;20205;-76
2023/03/30 03:16:23;;;;;;;2.45;2.10;;;;;;;4.29;73.38;62437.97;5029026;28;20201;-77
2023/03/30 03:18:49;;;;;;;2.72;2.53;;;;;;;4.29;73.58;62434.91;5034426;28;20245;-80
2023/03/30 03:21:17;;;;;;;5.25;2.17;;;;;;;4.32;74.04;62443.03;5034577;28;20397;-77
2023/03/30 03:23:47;;;;;;;2.35;2.13;;;;;;;4.38;74.06;62449.22;5043026;28;20198;-77
2023/03/30 03:26:14;;;;;;;1.80;1.70;;;;;;;4.41;74.50;62452.81;5045860;28;20487;-77
2023/03/30 03:28:41;;;;;;;4.50;2.25;;;;;;;4.36;75.18;62445.16;5046438;28;20212;-75
2023/03/30 03:31:08;;;;;;;2.60;2.15;;;;;;;4.27;75.93;62435.91;5046002;28;20198;-77
2023/03/30 03:33:37;;;;;;;2.10;2.00;;;;;;;4.27;76.59;62432.84;5041755;28;20210;-79
2023/03/30 03:36:04;;;;;;;2.58;2.38;;;;;;;4.30;75.81;62436.47;5035576;28;20285;-76
2023/03/30 03:38:31;;;;;;;1.20;1.20;;;;;;;4.25;77.48;62428.28;5033910;28;20451;-77
2023/03/30 03:40:59;;;;;;;2.80;2.60;;;;;;;4.17;79.41;62422.56;5032747;28;20237;-77
2023/03/30 03:43:26;;;;;;;2.47;2.28;;;;;;;4.20;81.18;62430.69;5038842;28;20268;-77
2023/03/30 03:45:54;;;;;;;2.25;2.15;;;;;;;4.08;82.69;62415.81;5037928;28;20211;-77
2023/03/30 03:48:22;;;;;;;1.77;1.67;;;;;;;3.89;85.91;62396.81;5041849;28;20574;-78
2023/03/30 03:50:52;;;;;;;3.35;2.38;;;;;;;3.79;88.12;62383.47;5046638;28;20206;-77
2023/03/30 03:53:20;;;;;;;2.50;2.33;;;;;;;3.74;89.76;62383.91;5034666;28;20298;-77
2023/03/30 03:55:47;;;;;;;3.28;2.97;;;;;;;3.75;90.67;62384.91;5029448;28;20508;-77
2023/03/30 03:58:15;;;;;;;1.48;1.48;;;;;;;3.73;91.11;62377.81;5043835;28;20248;-77
2023/03/30 04:00:42;;;;;;;3.10;2.90;;;;;;;3.71;91.98;62378.28;5048341;28;20241;-77
2023/03/30 04:03:10;;;;;;;2.90;2.80;;;;;;;3.70;92.77;62379.25;5039139;28;20226;-77
2023/03/30 04:05:38;;;;;;;2.78;2.58;;;;;;;3.78;91.80;62390.50;5030826;28;20273;-77
2023/03/30 04:08:09;;;;;;;2.78;2.35;;;;;;;3.95;90.91;62402.97;5041391;28;20230;-77
2023/03/30 04:10:37;;;;;;;3.08;2.30;;;;;;;3.81;91.44;62388.06;5036571;28;20205;-77
2023/03/30 04:13:04;;;;;;;2.75;2.33;;;;;;;3.80;91.16;62392.56;5035406;28;20222;-77
2023/03/30 04:15:31;;;;;;;3.03;2.72;;;;;;;3.75;92.36;62382.41;5037014;28;20203;-75
2023/03/30 04:17:58;;;;;;;2.63;2.35;;;;;;;3.78;92.88;62385.47;5035771;28;20546;-77
2023/03/30 04:20:26;;;;;;;5.07;3.13;;;;;;;3.94;91.95;62401.94;5045298;28;20244;-76
2023/03/30 04:22:53;;;;;;;4.63;3.00;;;;;;;4.07;90.24;62415.31;5041290;28;20274;-76
2023/03/30 04:25:24;;;;;;;2.25;2.05;;;;;;;4.12;90.12;62420.47;5038663;28;20202;-77
2023/03/30 04:27:51;;;;;;;9.82;3.17;;;;;;;4.26;88.62;62431.84;5037175;28;20222;-76
2023/03/30 04:30:19;;;;;;;3.95;1.40;;;;;;;4.26;88.12;62434.84;5051934;28;20202;-77
2023/03/30 04:32:53;;;;;;;1.98;1.85;;;;;;;4.38;87.96;62449.22;5032058;28;20231;-76
2023/03/30 04:35:20;;;;;;;2.63;2.42;;;;;;;4.34;87.36;62440.59;5028585;28;20199;-76
2023/03/30 04:37:51;;;;;;;2.30;2.20;;;;;;;4.51;86.60;62460.06;5042717;28;20231;-77
2023/03/30 04:40:18;;;;;;;4.32;2.30;;;;;;;4.43;86.62;62454.38;5045225;28;20248;-76
2023/03/30 04:42:48;;;;;;;2.83;1.98;;;;;;;4.38;87.02;62449.22;5031638;28;20223;-77
2023/03/30 04:45:17;;;;;;;4.25;1.70;;;;;;;4.17;88.37;62427.63;5033168;28;20229;-76
2023/03/30 04:47:44;;;;;;;7.50;2.35;;;;;;;4.03;90.16;62410.69;5044373;28;20241;-78
2023/03/30 04:50:11;;;;;;;7.97;2.90;;;;;;;4.10;90.64;62418.41;5045430;28;20202;-77
2023/03/30 04:52:37;;;;;;;4.18;2.75;;;;;;;4.09;90.47;62419.88;5044816;28;20222;-76
2023/03/30 04:55:05;;;;;;;6.15;3.08;;;;;;;4.03;91.79;62406.16;5047336;28;20198;-76
2023/03/30 04:57:32;;;;;;;2.92;2.70;;;;;;;4.13;92.04;62420.97;5045900;28;20222;-75
2023/03/30 05:00:00;;;;;;;3.45;3.22;;;;;;;4.13;91.63;62418.97;5043439;28;20236;-77
2023/03/30 05:02:27;;;;;;;3.08;2.88;;;;;;;4.20;91.39;62428.69;5046673;28;20234;-77
2023/03/30 05:04:54;;;;;;;5.53;3.38;;;;;;;4.22;91.59;62428.25;5046224;28;20225;-76
2023/03/30 05:07:21;;;;;;;4.30;3.17;;;;;;;4.37;91.15;62445.66;5047986;28;20232;-77
2023/03/30 05:09:48;;;;;;;5.85;3.28;;;;;;;4.51;90.08;62457.56;5045820;28;20201;-77
2023/03/30 05:12:16;;;;;;;4.63;2.85;;;;;;;4.59;88.58;62468.81;5051317;28;20218;-77
2023/03/30 05:14:43;;;;;;;3.30;3.05;;;;;;;4.69;88.07;62481.63;5047454;28;20204;-77
2023/03/30 05:17:11;;;;;;;3.63;2.90;;;;;;;4.81;87.12;62488.44;5045336;28;20264;-76
2023/03/30 05:19:38;;;;;;;6.60;3.28;;;;;;;4.90;87.02;62502.75;5048455;28;20411;-76
2023/03/30 05:22:05;;;;;;;4.13;3.72;;;;;;;4.99;86.85;62509.47;5047502;28;20230;-77
2023/03/30 05:24:33;;;;;;;7.43;3.28;;;;;;;5.09;85.97;62519.28;5046630;28;20198;-76
2023/03/30 05:27:01;;;;;;;4.78;3.10;;;;;;;5.08;85.28;62518.75;5043730;28;20519;-76
2023/03/30 05:29:28;;;;;;;3.25;2.47;;;;;;;5.22;84.00;62533.19;5048806;28;20198;-75
2023/03/30 05:31:55;;;;;;;3.25;2.90;;;;;;;5.17;83.77;62525.00;5045872;28;20226;-77
2023/03/30 05:34:23;;;;;;;2.85;2.65;;;;;;;5.04;84.81;62506.56;5046682;28;20225;-77
2023/03/30 05:36:50;;;;;;;2.50;2.35;;;;;;;5.07;84.54;62517.22;5043822;28;20225;-76
2023/03/30 05:39:17;;;;;;;3.15;2.45;;;;;;;5.03;85.32;62513.59;5047455;28;20427;-77
2023/03/30 05:41:43;;;;;;;3.92;3.00;;;;;;;5.21;84.93;62532.13;5046241;28;20280;-76
2023/03/30 05:44:10;;;;;;;5.53;2.85;;;;;;;5.13;83.97;62526.44;5040929;28;20256;-75
2023/03/30 05:46:37;;;;;;;3.38;3.10;;;;;;;5.25;84.46;62538.78;5044832;28;20256;-75
2023/03/30 05:49:04;;;;;;;3.10;2.75;;;;;;;5.39;83.37;62553.22;5047477;28;20237;-76
2023/03/30 05:51:33;;;;;;;5.95;3.63;;;;;;;5.48;83.61;62561.97;5046337;28;20218;-75
2023/03/30 05:54:00;;;;;;;3.85;3.55;;;;;;;5.66;83.43;62581.03;5044830;28;20203;-76
2023/03/30 05:56:27;;;;;;;4.78;4.00;;;;;;;5.88;81.92;62601.19;5045474;28;20218;-77
2023/03/30 05:58:54;;;;;;;7.55;3.78;;;;;;;5.97;81.41;62609.44;5039875;28;20484;-75
2023/03/30 06:01:21;;;;;;;8.55;3.60;;;;;;;5.98;80.75;62613.50;5035191;28;20331;-77
2023/03/30 06:03:48;;;;;;;4.95;3.83;;;;;;;6.04;79.55;62619.69;5037298;28;20564;-74
2023/03/30 06:06:15;;;;;;;6.10;3.92;;;;;;;6.10;79.17;62622.81;5045417;28;20236;-76
2023/03/30 06:08:43;;;;;;;7.25;4.05;;;;;;;6.17;79.59;62630.03;5035588;28;20213;-76
2023/03/30 06:11:11;;;;;;;4.97;4.07;;;;;;;6.23;77.82;62633.72;5029544;28;20252;-76
2023/03/30 06:13:38;;;;;;;6.82;3.83;;;;;;;6.23;78.41;62631.69;5025345;28;20234;-75
2023/03/30 06:16:06;;;;;;;4.97;4.57;;;;;;;6.24;78.60;62642.31;5040895;28;20333;-75
2023/03/30 06:18:33;;;;;;;4.53;3.58;;;;;;;6.07;78.59;62620.25;5027982;28;20211;-75
2023/03/30 06:21:05;;;;;;;6.47;3.38;;;;;;;6.16;79.29;62631.56;5031781;28;20264;-75
2023/03/30 06:23:32;;;;;;;5.38;4.30;;;;;;;6.26;78.58;62639.31;5042305;28;20202;-77
2023/03/30 06:26:01;;;;;;;9.05;4.88;;;;;;;6.22;80.66;62635.72;5040500;28;20202;-76
2023/03/30 06:28:28;;;;;;;7.95;5.53;;;;;;;6.02;84.37;62617.13;5042361;28;20290;-76
2023/03/30 06:30:55;;;;;;;7.30;5.05;;;;;;;5.66;88.23;62578.00;5036928;28;20222;-76
2023/03/30 06:33:24;;;;;;;6.68;5.43;;;;;;;5.73;89.17;62587.72;5040179;28;20217;-76
2023/03/30 06:35:53;;;;;;;8.27;5.63;;;;;;;5.51;90.43;62562.53;5039404;28;20209;-77
2023/03/30 06:38:21;;;;;;;6.20;5.18;;;;;;;5.30;92.02;62541.41;5034700;28;20230;-75
2023/03/30 06:40:49;;;;;;;8.15;5.35;;;;;;;5.20;93.78;62531.13;5040082;28;20208;-76
2023/03/30 06:43:21;;;;;;;5.70;5.15;;;;;;;5.26;95.47;62542.34;5042919;28;20241;-75
2023/03/30 06:45:51;;;;;;;8.65;5.72;;;;;;;5.42;94.68;62558.81;5031015;28;20206;-76
2023/03/30 06:48:21;;;;;;;11.52;7.60;;;;;;;5.29;94.31;62540.38;5031256;28;20310;-77
2023/03/30 06:50:48;;;;;;;12.55;7.05;;;;;;;5.23;95.81;62534.19;5030652;28;20206;-77
2023/03/30 06:53:15;;;;;;;6.85;6.07;;;;;;;5.32;93.61;62542.94;5030896;28;20283;-77
2023/03/30 06:55:42;;;;;;;8.52;5.40;;;;;;;5.70;91.77;62584.63;5035801;28;20269;-77
2023/03/30 06:58:10;;;;;;;5.47;4.88;;;;;;;5.67;89.90;62579.53;5033077;28;20230;-76
2023/03/30 07:00:38;;;;;;;12.90;5.28;;;;;;;5.61;89.15;62573.34;5025123;28;20547;-76
2023/03/30 07:03:05;;;;;;;8.07;4.85;;;;;;;5.73;89.35;62583.19;5030797;28;21278;-76
2023/03/30 07:05:32;;;;;;;5.97;5.15;;;;;;;5.97;87.85;62609.94;5028381;28;20213;-78
2023/03/30 07:07:59;;;;;;;6.90;4.63;;;;;;;6.47;84.26;62658.94;5044560;28;20538;-76
2023/03/30 07:10:27;;;;;;;4.60;3.92;;;;;;;6.72;81.14;62686.75;5044423;28;20206;-76
2023/03/30 07:12:54;;;;;;;10.73;5.75;;;;;;;6.69;80.62;62689.25;5044853;28;20233;-75
2023/03/30 07:15:21;;;;;;;7.45;5.05;;;;;;;7.06;79.50;62718.78;5034049;28;20273;-77
2023/03/30 07:17:50;;;;;;;12.40;4.68;;;;;;;7.21;75.67;62736.78;5027992;28;20419;-76
2023/03/30 07:20:17;;;;;;;5.20;4.35;;;;;;;7.31;75.08;62749.63;5024449;28;20198;-77
2023/03/30 07:22:44;;;;;;;9.38;5.38;;;;;;;7.47;74.57;62766.16;5034371;28;20241;-77
2023/03/30 07:25:11;;;;;;;8.18;6.25;;;;;;;7.33;76.59;62749.69;5044623;28;20236;-76
2023/03/30 07:27:39;;;;;;;6.78;6.00;;;;;;;7.49;77.74;62765.69;5044485;28;20558;-76
2023/03/30 07:30:09;;;;;;;8.38;6.47;;;;;;;7.53;75.71;62770.31;5042923;28;20242;-77
2023/03/30 07:32:36;;;;;;;9.30;6.07;;;;;;;7.46;75.75;62762.56;5043690;28;20264;-77
2023/03/30 07:35:04;;;;;;;11.85;5.38;;;;;;;7.55;77.14;62774.91;5044256;28;20213;-77
2023/03/30 07:37:31;;;;;;;6.05;5.30;;;;;;;7.92;72.78;62812.59;5038120;28;20607;-77
2023/03/30 07:39:59;;;;;;;8.38;5.38;;;;;;;7.67;72.91;62786.78;5025569;28;20228;-77
2023/03/30 07:42:26;;;;;;;8.38;5.18;;;;;;;7.77;72.80;62795.09;5036799;28;20244;-76
2023/03/30 07:44:53;;;;;;;10.23;7.03;;;;;;;8.12;71.41;62833.25;5036975;28;20533;-77
2023/03/30 07:47:20;;;;;;;8.02;5.68;;;;;;;8.05;72.04;62821.47;5044602;28;20319;-78
2023/03/30 07:49:48;;;;;;;9.13;5.57;;;;;;;8.15;70.51;62833.81;5033708;28;20256;-76
2023/03/30 07:52:16;;;;;;;8.40;6.15;;;;;;;8.35;70.19;62853.97;5043764;28;20232;-77
2023/03/30 07:54:43;;;;;;;8.52;6.03;;;;;;;8.67;67.36;62892.63;5030134;28;20248;-77
2023/03/30 07:57:11;;;;;;;11.98;5.90;;;;;;;8.36;66.78;62857.53;5041116;28;20230;-76
2023/03/30 07:59:38;;;;;;;6.25;5.60;;;;;;;7.82;71.02;62799.72;5043284;28;20202;-77
2023/03/30 08:02:06;;;;;;;8.73;5.80;;;;;;;8.19;69.85;62843.53;5040520;28;20230;-77
2023/03/30 08:04:33;;;;;;;6.97;5.95;;;;;;;8.43;67.64;62864.78;5042630;28;20273;-76
2023/03/30 08:07:02;;;;;;;8.13;6.03;;;;;;;8.59;66.01;62876.22;5038512;28;20539;-78
2023/03/30 08:09:31;;;;;;;7.05;5.43;;;;;;;7.91;67.56;62814.09;5040541;28;20228;-75
2023/03/30 08:11:58;;;;;;;8.00;5.88;;;;;;;7.30;71.63;62748.59;5039802;28;20272;-77
2023/03/30 08:14:26;;;;;;;14.88;5.72;;;;;;;7.43;72.13;62764.56;5041931;28;20202;-78
2023/03/30 08:16:53;;;;;;;8.07;5.93;;;;;;;7.62;71.79;62784.16;5039079;28;20365;-78
2023/03/30 08:19:20;;;;;;;9.98;5.85;;;;;;;8.19;69.04;62835.41;5046264;28;20225;-77
2023/03/30 08:21:47;;;;;;;9.50;6.28;;;;;;;8.44;67.65;62863.28;5039033;28;20233;-76
2023/03/30 08:24:14;;;;;;;8.57;6.40;;;;;;;8.64;64.26;62886.47;5043250;28;20422;-76
2023/03/30 08:26:42;;;;;;;6.60;5.68;;;;;;;8.28;65.24;62849.81;5042535;28;20227;-76
2023/03/30 08:29:10;;;;;;;10.25;5.85;;;;;;;8.61;66.76;62881.34;5042943;28;20214;-76
2023/03/30 08:31:36;;;;;;;11.95;5.65;;;;;;;8.94;63.83;62917.97;5043086;28;20280;-77
2023/03/30 08:34:05;;;;;;;9.20;6.00;;;;;;;9.13;63.41;62937.09;5043403;28;20277;-76
2023/03/30 08:36:32;;;;;;;9.85;7.32;;;;;;;9.35;61.89;62959.84;5043957;28;20214;-77
2023/03/30 08:38:59;;;;;;;6.28;5.65;;;;;;;9.68;60.52;62993.47;5039817;28;20288;-75
2023/03/30 08:42:04;;;;;;;9.48;5.93;;;;;;;10.05;58.84;63031.72;5044538;28;20221;-77
2023/03/30 08:44:36;;;;;;;14.23;6.15;;;;;;;10.16;57.43;63040.56;5025486;28;20236;-76
2023/03/30 08:47:06;;;;;;;7.85;6.22;;;;;;;9.89;58.51;63015.69;5038821;28;20466;-78
2023/03/30 08:49:39;;;;;;;8.70;5.90;;;;;;;9.86;58.52;63015.13;5043958;28;20236;-77
2023/03/30 08:52:07;;;;;;;10.75;5.68;;;;;;;10.39;57.98;63064.38;5038789;28;20280;-77
2023/03/30 08:54:35;;;;;;;8.10;6.07;;;;;;;10.79;56.12;63108.31;5046869;28;20549;-76
2023/03/30 08:57:10;;;;;;;9.45;6.15;;;;;;;10.45;55.84;63071.09;5036617;28;20289;-76
2023/03/30 08:59:45;;;;;;;11.35;6.45;;;;;;;10.72;55.89;63101.06;5042668;28;20221;-76
2023/03/30 09:02:18;;;;;;;9.32;5.43;;;;;;;10.61;54.69;63089.69;5040082;28;20247;-77
2023/03/30 09:04:56;;;;;;;7.03;5.25;;;;;;;9.99;54.97;63025.53;5045180;28;20198;-78
2023/03/30 09:07:26;;;;;;;9.02;5.60;;;;;;;10.13;55.11;63037.97;5042676;28;20233;-76
2023/03/30 09:09:54;;;;;;;7.53;6.68;;;;;;;10.45;56.95;63071.09;5039758;28;20206;-76
2023/03/30 09:12:30;;;;;;;10.07;6.30;;;;;;;10.57;57.33;63088.09;5040886;28;20271;-77
2023/03/30 09:15:03;;;;;;;10.15;6.10;;;;;;;11.11;55.30;63141.44;5042386;28;20384;-76
2023/03/30 09:17:33;;;;;;;6.35;5.53;;;;;;;11.57;54.30;63191.13;5045180;28;20283;-75
2023/03/30 09:20:06;;;;;;;9.23;5.30;;;;;;;12.00;51.86;63232.63;5042302;28;20198;-76
2023/03/30 09:22:37;;;;;;;8.68;4.80;;;;;;;12.51;49.26;63285.50;5042092;28;20233;-77
2023/03/30 09:25:17;;;;;;;5.90;4.65;;;;;;;11.88;48.30;63215.59;5044427;28;20212;-76
2023/03/30 09:27:57;;;;;;;5.00;4.03;;;;;;;11.29;49.59;63160.09;5039545;28;20235;-77
2023/03/30 09:30:34;;;;;;;5.03;3.88;;;;;;;10.55;50.56;63086.03;5039756;28;20201;-76
2023/03/30 09:33:09;;;;;;;3.53;3.28;;;;;;;10.36;51.58;63063.81;5047250;28;20228;-77
2023/03/30 09:35:40;;;;;;;6.78;3.83;;;;;;;9.97;52.73;63028.53;5044096;28;20200;-76
2023/03/30 09:38:11;;;;;;;7.35;4.20;;;;;;;10.19;52.01;63046.22;5039095;28;20268;-77
2023/03/30 09:40:53;;;;;;;4.93;3.58;;;;;;;9.79;52.26;63009.91;5037295;28;20197;-77
2023/03/30 09:43:28;;;;;;;8.20;4.47;;;;;;;9.63;53.01;62988.78;5046607;28;20237;-79
2023/03/30 09:45:57;;;;;;;4.93;3.85;;;;;;;9.54;52.53;62974.41;5027057;28;20209;-77
2023/03/30 09:48:25;;;;;;;6.95;3.33;;;;;;;9.87;52.49;63016.16;5045843;28;20531;-77
2023/03/30 09:50:52;;;;;;;3.67;3.35;;;;;;;9.96;52.10;63022.41;5048482;28;20495;-77
2023/03/30 09:53:23;;;;;;;6.22;3.17;;;;;;;9.93;51.40;63024.91;5045401;28;20378;-77
2023/03/30 09:56:01;;;;;;;3.50;3.30;;;;;;;10.42;51.32;63072.56;5045544;28;20230;-77
2023/03/30 09:58:29;;;;;;;6.07;4.10;;;;;;;10.88;50.14;63119.66;5040440;28;20249;-76
2023/03/30 10:01:07;;;;;;;4.68;3.60;;;;;;;11.34;48.85;63164.75;5027628;28;20274;-76
2023/03/30 10:03:35;;;;;;;3.95;2.20;;;;;;;11.61;46.56;63195.28;5035081;28;20234;-78
2023/03/30 10:06:06;;;;;;;2.15;1.95;;;;;;;11.95;46.08;63222.84;5045157;28;20210;-77
2023/03/30 10:08:33;;;;;;;3.30;1.85;;;;;;;10.84;47.52;63112.97;5049289;28;20198;-77
2023/03/30 10:11:04;;;;;;;3.25;2.28;;;;;;;10.80;47.16;63111.38;5046255;28;20240;-78
2023/03/30 10:13:33;;;;;;;1.83;1.73;;;;;;;10.94;47.25;63126.38;5044346;28;20277;-78
2023/03/30 10:16:07;;;;;;;1.90;1.70;;;;;;;10.88;47.06;63117.63;5046261;28;20453;-76
2023/03/30 10:18:39;;;;;;;2.13;2.00;;;;;;;10.72;47.97;63103.63;5046828;28;20269;-77
2023/03/30 10:21:16;;;;;;;2.83;1.42;;;;;;;10.61;48.20;63086.63;5043947;28;20362;-76
2023/03/30 10:23:46;;;;;;;3.58;1.58;;;;;;;10.72;47.72;63101.06;5044769;28;20275;-77
2023/03/30 10:26:17;;;;;;;4.10;2.00;;;;;;;10.43;48.37;63073.59;5049240;28;20253;-77
2023/03/30 10:28:55;;;;;;;3.03;1.88;;;;;;;10.38;48.45;63068.44;5031658;28;20211;-78
2023/03/30 10:31:26;;;;;;;2.17;1.75;;;;;;;10.44;48.82;63074.63;5030856;28;20204;-75
2023/03/30 10:33:57;;;;;;;3.60;1.90;;;;;;;10.36;48.91;63061.25;5045137;28;20218;-77
2023/03/30 10:36:30;;;;;;;1.52;1.42;;;;;;;10.46;49.00;63079.78;5045415;28;20198;-77
2023/03/30 10:39:05;;;;;;;2.60;1.83;;;;;;;10.85;47.31;63112.00;5028920;28;20557;-77
2023/03/30 10:41:32;;;;;;;2.03;1.77;;;;;;;11.17;46.80;63144.59;5032578;28;20230;-76
2023/03/30 10:44:07;;;;;;;2.15;1.98;;;;;;;10.88;47.16;63122.22;5029849;28;20238;-77
2023/03/30 10:46:37;;;;;;;1.50;1.40;;;;;;;10.62;47.78;63085.63;5047214;28;20239;-78
2023/03/30 10:49:16;;;;;;;2.08;1.70;;;;;;;10.84;47.45;63113.50;5043973;28;20479;-76
2023/03/30 10:51:55;;;;;;;1.83;1.73;;;;;;;11.10;47.83;63135.31;5045138;28;20218;-77
2023/03/30 10:54:29;;;;;;;1.98;1.88;;;;;;;11.38;47.37;63169.41;5041135;28;20257;-78
2023/03/30 10:57:02;;;;;;;3.67;2.00;;;;;;;11.46;46.35;63180.25;5025617;28;20222;-77
2023/03/30 10:59:54;;;;;;;4.60;2.30;;;;;;;11.12;46.61;63147.06;5035654;28;20232;-77
2023/03/30 11:02:39;;;;;;;5.93;1.90;;;;;;;11.26;46.88;63159.53;5031422;28;20233;-76
2023/03/30 11:05:12;;;;;;;1.67;1.60;;;;;;;11.30;47.24;63161.13;5038080;28;20260;-77
2023/03/30 11:07:44;;;;;;;4.30;2.08;;;;;;;11.58;46.00;63192.16;5038454;28;20270;-76
2023/03/30 11:10:17;;;;;;;2.17;1.83;;;;;;;11.94;44.26;63229.47;5034755;28;20201;-76
2023/03/30 11:12:48;;;;;;;1.80;1.70;;;;;;;12.01;44.34;63239.28;5033496;28;20229;-77
2023/03/30 11:15:19;;;;;;;4.43;2.20;;;;;;;12.37;44.14;63273.53;5038696;28;20628;-76
2023/03/30 11:17:57;;;;;;;1.30;1.20;;;;;;;11.72;45.32;63211.78;5037853;28;20571;-77
2023/03/30 11:20:27;;;;;;;1.50;1.45;;;;;;;11.31;46.10;63164.72;5039553;28;20209;-76
2023/03/30 11:23:06;;;;;;;3.50;1.90;;;;;;;11.47;46.14;63180.75;5039329;28;20231;-76
2023/03/30 11:25:37;;;;;;;3.38;2.10;;;;;;;11.27;46.06;63160.03;5039114;28;20244;-76
2023/03/30 11:28:18;;;;;;;2.30;2.20;;;;;;;11.52;45.92;63185.94;5042824;28;20218;-77
2023/03/30 11:30:45;;;;;;;1.77;1.67;;;;;;;11.46;45.66;63169.53;5045298;28;20205;-76
2023/03/30 11:33:26;;;;;;;4.50;1.70;;;;;;;11.57;45.62;63191.13;5043928;28;20263;-77
2023/03/30 11:35:57;;;;;;;2.88;2.67;;;;;;;11.94;45.35;63232.03;5043620;28;20368;-75
2023/03/30 11:38:29;;;;;;;4.00;2.58;;;;;;;11.80;45.04;63212.44;5045601;28;20229;-76
2023/03/30 11:41:00;;;;;;;3.22;2.05;;;;;;;11.53;45.10;63190.03;5042359;28;20194;-75
2023/03/30 11:43:30;;;;;;;1.95;1.55;;;;;;;11.65;44.96;63199.41;5040463;28;20230;-75
2023/03/30 11:46:02;;;;;;;8.27;1.75;;;;;;;11.80;44.91;63211.91;5037149;28;20265;-75
2023/03/30 11:49:00;;;;;;;2.47;2.28;;;;;;;11.98;45.14;63233.09;5040051;28;20234;-75
2023/03/30 11:51:44;;;;;;;2.28;2.08;;;;;;;11.79;44.70;63213.94;5034662;28;20234;-76
2023/03/30 11:54:37;;;;;;;2.05;1.70;;;;;;;11.97;44.79;63230.03;5040502;28;20202;-75
2023/03/30 11:57:15;;;;;;;1.45;1.42;;;;;;;12.28;43.89;63264.19;5040007;28;20282;-75